Time;durP1;ratioP1;P1;durP2;ratioP2;P2;SDS_P1;SDS_P2;PMS_P1;PMS_P2;Temp;Humidity;BMP_temperature;BMP_pressure;BME280_temperature;BME280_humidity;BME280_pressure;Samples;Min_cycle;Max_cycle;Signal;HPM_P1;HPM_P2
2023/05/27 00:00:06;;;;;;;;;10.67;7.33;;;;;18.50;47.02;101607.22;6256559;22;45372;-85
2023/05/27 00:02:34;;;;;;;;;10.00;10.00;;;;;18.51;47.61;101611.69;6227912;22;45809;-85
2023/05/27 00:05:00;;;;;;;;;11.67;11.00;;;;;18.36;48.14;101601.88;6257514;22;45421;-85
2023/05/27 00:07:26;;;;;;;;;7.33;5.67;;;;;18.34;47.70;101610.84;6258314;22;45416;-85
2023/05/27 00:09:51;;;;;;;;;7.00;7.00;;;;;18.34;47.13;101608.16;6258551;22;45791;-85
2023/05/27 00:12:18;;;;;;;;;6.00;6.00;;;;;18.39;47.73;101611.75;6231490;22;45358;-85
2023/05/27 00:14:44;;;;;;;;;9.00;8.33;;;;;18.33;47.11;101603.69;6257189;22;44932;-84
2023/05/27 00:17:13;;;;;;;;;6.67;6.33;;;;;18.36;47.05;101603.66;6230928;22;45476;-85
2023/05/27 00:19:44;;;;;;;;;6.33;6.33;;;;;18.35;47.74;101596.50;6233277;22;47914;-85
2023/05/27 00:22:10;;;;;;;;;10.33;9.00;;;;;18.29;47.29;101601.91;6232673;22;45935;-84
2023/05/27 00:24:38;;;;;;;;;7.33;7.33;;;;;18.27;47.65;101606.41;6258359;22;45404;-84
2023/05/27 00:27:05;;;;;;;;;7.00;4.00;;;;;18.24;47.78;101607.31;6257918;22;45161;-84
2023/05/27 00:29:30;;;;;;;;;7.33;7.33;;;;;18.13;47.26;101599.28;6255402;22;46213;-84
2023/05/27 00:31:56;;;;;;;;;10.33;7.00;;;;;18.08;47.59;101587.63;6258414;22;45376;-85
2023/05/27 00:34:21;;;;;;;;;6.00;6.00;;;;;18.09;47.49;101594.78;6230422;22;45304;-84
2023/05/27 00:36:47;;;;;;;;;7.67;7.67;;;;;18.07;47.68;101604.66;6230022;22;45408;-83
2023/05/27 00:39:12;;;;;;;;;8.67;8.00;;;;;18.03;47.84;101592.13;6229576;22;46858;-84
2023/05/27 00:41:38;;;;;;;;;7.00;6.67;;;;;17.98;47.69;101569.72;6229095;22;45805;-84
2023/05/27 00:44:03;;;;;;;;;10.67;9.00;;;;;17.98;47.25;101583.19;6229866;22;45422;-84
2023/05/27 00:46:29;;;;;;;;;10.67;10.33;;;;;18.04;47.63;101585.84;6230350;22;45371;-84
2023/05/27 00:48:55;;;;;;;;;10.00;8.50;;;;;18.01;47.32;101583.16;6255707;22;45406;-84
2023/05/27 00:51:20;;;;;;;;;7.00;7.00;;;;;18.05;47.57;101590.31;6255840;22;45283;-85
2023/05/27 00:53:46;;;;;;;;;9.33;8.33;;;;;18.04;47.30;101591.25;6255550;22;45282;-85
2023/05/27 00:56:18;;;;;;;;;9.67;7.67;;;;;18.04;47.64;101580.47;6228310;22;44936;-85
2023/05/27 00:58:43;;;;;;;;;11.67;9.67;;;;;17.98;47.09;101589.47;6227894;22;46919;-85
2023/05/27 01:01:10;;;;;;;;;10.00;8.00;;;;;18.00;47.33;101586.78;6228498;22;45704;-85
2023/05/27 01:03:36;;;;;;;;;5.67;5.67;;;;;17.99;47.01;101585.84;6229633;22;45156;-83
2023/05/27 01:06:19;;;;;;;;;17.67;12.00;;;;;18.05;47.12;101581.38;6256142;22;45094;-84
2023/05/27 01:09:09;;;;;;;;;11.00;9.33;;;;;17.97;47.35;101578.69;6229518;22;48283;-84
2023/05/27 01:12:03;;;;;;;;;6.00;6.00;;;;;17.91;47.29;101587.66;6256122;22;45747;-85
2023/05/27 01:14:33;;;;;;;;;8.00;8.00;;;;;17.83;47.65;101575.09;6218276;22;45708;-85
2023/05/27 01:17:01;;;;;;;;;8.33;8.33;;;;;17.76;47.90;101580.50;6255979;22;45396;-85
2023/05/27 01:19:45;;;;;;;;;9.67;6.67;;;;;17.77;47.32;101573.31;6256223;22;45330;-85
2023/05/27 01:22:13;;;;;;;;;12.67;8.67;;;;;17.66;48.01;101578.75;6257122;22;45217;-85
2023/05/27 01:24:41;;;;;;;;;9.67;7.67;;;;;17.62;47.45;101571.56;6256924;22;45342;-85
2023/05/27 01:27:15;;;;;;;;;10.00;9.00;;;;;17.59;47.64;101564.41;6230340;22;45385;-84
2023/05/27 01:29:41;;;;;;;;;14.33;9.67;;;;;17.57;47.64;101565.28;6228824;22;48157;-85
2023/05/27 01:32:15;;;;;;;;;5.67;5.67;;;;;17.52;47.70;101577.88;6227862;22;45684;-84
2023/05/27 01:34:58;;;;;;;;;11.00;8.67;;;;;17.54;47.66;101574.25;6256389;22;45437;-85
2023/05/27 01:37:27;;;;;;;;;12.00;10.50;;;;;17.48;47.71;101573.38;6228994;22;45323;-85
2023/05/27 01:39:53;;;;;;;;;6.00;6.00;;;;;17.43;47.66;101567.09;6228895;22;47214;-85
2023/05/27 01:42:20;;;;;;;;;9.33;8.00;;;;;17.46;47.49;101561.75;6258311;22;45307;-84
2023/05/27 01:44:49;;;;;;;;;7.33;5.67;;;;;17.50;47.76;101564.41;6258709;22;45309;-85
2023/05/27 01:47:15;;;;;;;;;10.00;7.00;;;;;17.42;47.53;101570.72;6258438;22;45229;-84
2023/05/27 01:49:40;;;;;;;;;7.33;6.33;;;;;17.36;48.14;101575.19;6258669;22;45464;-84
2023/05/27 01:52:08;;;;;;;;;9.00;8.67;;;;;17.31;47.78;101565.31;6230046;22;45363;-84
2023/05/27 01:54:34;;;;;;;;;8.33;8.33;;;;;17.25;47.84;101557.25;6231443;22;45463;-84
2023/05/27 01:57:00;;;;;;;;;6.67;6.67;;;;;17.25;47.89;101566.25;6258481;22;45537;-84
2023/05/27 01:59:26;;;;;;;;;6.67;6.00;;;;;17.22;47.86;101566.22;6233322;22;47419;-84
2023/05/27 02:01:51;;;;;;;;;10.67;9.33;;;;;17.23;47.48;101562.66;6252638;22;45340;-84
2023/05/27 02:04:20;;;;;;;;;7.33;6.33;;;;;17.33;47.75;101572.50;6261906;22;44787;-85
2023/05/27 02:06:45;;;;;;;;;8.00;6.00;;;;;17.23;47.65;101562.66;6232651;22;45427;-86
2023/05/27 02:09:12;;;;;;;;;11.00;9.00;;;;;17.25;47.38;101574.31;6230059;22;46842;-85
2023/05/27 02:11:38;;;;;;;;;8.00;6.33;;;;;17.24;47.57;101559.06;6229146;22;44827;-84
2023/05/27 02:14:05;;;;;;;;;6.67;6.00;;;;;17.27;47.48;101567.13;6257580;22;45329;-84
2023/05/27 02:16:33;;;;;;;;;8.33;6.00;;;;;17.25;47.14;101562.63;6228479;22;45352;-85
2023/05/27 02:19:00;;;;;;;;;4.67;4.67;;;;;17.28;47.31;101562.66;6229061;22;46808;-84
2023/05/27 02:21:29;;;;;;;;;7.00;6.33;;;;;17.30;47.29;101563.53;6229356;22;45409;-85
2023/05/27 02:23:54;;;;;;;;;9.00;7.00;;;;;17.14;47.44;101557.28;6227963;22;45600;-85
2023/05/27 02:26:21;;;;;;;;;13.67;8.00;;;;;17.08;47.89;101566.22;6257118;22;45321;-85
2023/05/27 02:28:50;;;;;;;;;7.67;7.67;;;;;17.08;47.60;101566.22;6228092;22;47025;-85
2023/05/27 02:31:15;;;;;;;;;10.00;8.33;;;;;16.98;47.39;101565.31;6228439;22;45500;-84
2023/05/27 02:33:40;;;;;;;;;11.00;8.67;;;;;16.99;47.52;101558.16;6229164;22;45542;-85
2023/05/27 02:36:06;;;;;;;;;8.33;8.00;;;;;16.97;47.53;101558.16;6228649;22;45272;-85
2023/05/27 02:38:35;;;;;;;;;5.33;5.33;;;;;16.98;47.89;101553.69;6256753;22;45345;-85
2023/05/27 02:41:00;;;;;;;;;8.00;8.00;;;;;16.91;47.46;101546.53;6229933;22;45450;-85
2023/05/27 02:43:25;;;;;;;;;9.00;7.67;;;;;16.90;47.53;101544.72;6257958;22;45370;-84
2023/05/27 02:45:51;;;;;;;;;7.33;5.33;;;;;16.92;47.40;101549.19;6257122;22;45405;-84
2023/05/27 02:48:16;;;;;;;;;7.33;6.67;;;;;16.90;47.74;101542.91;6256136;22;45277;-85
2023/05/27 02:50:42;;;;;;;;;11.67;10.00;;;;;16.84;47.64;101532.16;6227807;22;45255;-85
2023/05/27 02:53:08;;;;;;;;;9.67;9.00;;;;;16.86;47.62;101550.97;6229975;22;45350;-85
2023/05/27 02:55:33;;;;;;;;;6.67;6.67;;;;;16.82;47.74;101530.38;6228564;22;45316;-84
2023/05/27 02:57:59;;;;;;;;;5.67;5.67;;;;;16.77;47.55;101538.41;6254781;22;45304;-85
2023/05/27 03:00:25;;;;;;;;;6.00;6.00;;;;;16.76;47.61;101536.59;6257386;22;45792;-85
2023/05/27 03:02:51;;;;;;;;;6.67;6.67;;;;;16.76;47.75;101544.66;6257385;22;45358;-85
2023/05/27 03:05:17;;;;;;;;;9.00;7.67;;;;;16.74;47.66;101533.94;6256785;22;45541;-85
2023/05/27 03:07:43;;;;;;;;;8.00;8.00;;;;;16.72;47.76;101541.06;6258326;22;45416;-85
2023/05/27 03:14:24;;;;;;;;;8.00;8.00;;;;;16.78;47.93;101537.50;6224558;22;45259;-85
2023/05/27 03:16:49;;;;;;;;;9.67;8.33;;;;;16.62;47.76;101535.69;6227060;22;45750;-85
2023/05/27 03:19:15;;;;;;;;;6.00;5.33;;;;;16.59;47.64;101533.91;6226183;22;45666;-84
2023/05/27 03:21:40;;;;;;;;;6.00;6.00;;;;;16.52;48.06;101533.00;6223756;22;45256;-84
2023/05/27 03:24:07;;;;;;;;;8.00;7.00;;;;;16.64;47.66;101539.28;6224728;22;45571;-85
2023/05/27 03:26:33;;;;;;;;;5.00;5.00;;;;;16.58;47.43;101540.16;6225623;22;45378;-84
2023/05/27 03:28:59;;;;;;;;;11.33;9.67;;;;;16.54;47.73;101535.66;6226471;22;46005;-84
2023/05/27 03:31:25;;;;;;;;;7.67;7.00;;;;;16.66;47.44;101537.47;6224543;22;45347;-84
2023/05/27 03:33:51;;;;;;;;;9.33;8.00;;;;;16.52;47.77;101527.63;6226922;22;45418;-84
2023/05/27 03:36:17;;;;;;;;;6.00;6.00;;;;;16.54;47.77;101530.28;6225209;22;45438;-84
2023/05/27 03:38:43;;;;;;;;;6.33;6.33;;;;;16.52;47.78;101532.09;6198234;22;47203;-84
2023/05/27 03:41:09;;;;;;;;;8.67;8.00;;;;;16.52;47.64;101530.31;6226285;22;45367;-84
2023/05/27 03:43:34;;;;;;;;;7.00;7.00;;;;;16.52;47.56;101530.31;6225143;22;45368;-85
2023/05/27 03:46:00;;;;;;;;;7.67;7.67;;;;;16.49;47.80;101530.28;6221978;22;44755;-85
2023/05/27 03:48:27;;;;;;;;;8.00;7.00;;;;;16.55;47.61;101524.03;6222763;22;47205;-85
2023/05/27 03:50:55;;;;;;;;;9.00;7.00;;;;;16.55;48.00;101532.09;6225260;22;44809;-85
2023/05/27 03:53:21;;;;;;;;;13.33;10.00;;;;;16.48;47.61;101531.19;6226913;22;45295;-85
2023/05/27 03:55:46;;;;;;;;;6.00;5.00;;;;;16.46;47.77;101530.31;6201555;22;45516;-85
2023/05/27 03:58:16;;;;;;;;;8.33;7.33;;;;;16.45;47.95;101541.91;6224201;22;46581;-86
2023/05/27 04:00:42;;;;;;;;;11.67;9.00;;;;;16.37;48.26;101525.78;6226435;22;45333;-85
2023/05/27 04:03:08;;;;;;;;;10.67;7.33;;;;;16.40;48.06;101544.59;6224179;22;45381;-85
2023/05/27 04:05:34;;;;;;;;;7.00;7.00;;;;;16.38;47.97;101540.09;6219593;22;45384;-85
2023/05/27 04:08:03;;;;;;;;;12.33;9.67;;;;;16.40;47.91;101533.88;6223268;22;45021;-85
2023/05/27 04:10:28;;;;;;;;;6.00;4.00;;;;;16.34;47.92;101539.22;6226795;22;45321;-85
2023/05/27 04:12:54;;;;;;;;;7.00;7.00;;;;;16.36;48.04;101540.13;6240071;22;45337;-85
2023/05/27 04:15:19;;;;;;;;;5.67;5.67;;;;;16.34;48.02;101544.59;6229340;22;45284;-85
2023/05/27 04:17:45;;;;;;;;;9.00;7.00;;;;;16.37;48.25;101535.63;6255474;22;45638;-85
2023/05/27 04:20:14;;;;;;;;;12.00;11.00;;;;;16.41;48.16;101540.13;6256761;22;45374;-85
2023/05/27 04:22:41;;;;;;;;;9.67;6.67;;;;;16.45;48.01;101541.91;6229825;22;45516;-84
2023/05/27 04:25:07;;;;;;;;;8.67;8.00;;;;;16.44;48.04;101534.78;6258583;22;45339;-84
2023/05/27 04:27:33;;;;;;;;;8.33;8.33;;;;;16.45;48.46;101538.34;6257398;22;45534;-85
2023/05/27 04:29:59;;;;;;;;;7.00;7.00;;;;;16.38;48.29;101532.03;6254456;22;44751;-85
2023/05/27 04:32:27;;;;;;;;;6.67;6.67;;;;;16.41;48.48;101542.81;6254005;22;45266;-85
2023/05/27 04:34:57;;;;;;;;;13.00;11.00;;;;;16.44;48.10;101534.78;6226939;22;45390;-85
2023/05/27 04:37:22;;;;;;;;;11.00;9.00;;;;;16.37;48.34;101533.84;6229511;22;47557;-85
2023/05/27 04:39:48;;;;;;;;;7.67;7.00;;;;;16.36;48.68;101536.50;6256930;22;45393;-85
2023/05/27 04:42:15;;;;;;;;;8.33;7.33;;;;;16.34;48.58;101538.28;6255406;22;45414;-85
2023/05/27 04:44:40;;;;;;;;;6.67;6.67;;;;;16.36;48.42;101541.88;6256966;22;45303;-84
2023/05/27 04:47:06;;;;;;;;;8.67;8.00;;;;;16.48;48.57;101535.66;6230799;22;46878;-84
2023/05/27 04:49:31;;;;;;;;;7.67;6.67;;;;;16.62;48.20;101528.50;6257352;22;45344;-85
2023/05/27 04:51:57;;;;;;;;;8.00;8.00;;;;;16.69;48.13;101530.34;6253265;22;45412;-85
2023/05/27 04:54:23;;;;;;;;;6.00;6.00;;;;;16.72;47.89;101529.44;6229619;22;45294;-85
2023/05/27 04:56:51;;;;;;;;;7.67;6.00;;;;;16.78;47.78;101535.72;6229930;22;47727;-85
2023/05/27 04:59:19;;;;;;;;;6.67;6.00;;;;;16.89;47.73;101530.38;6228931;22;45470;-85
2023/05/27 05:04:29;;;;;;;;;5.67;5.67;;;;;16.99;47.45;101529.50;6259598;22;44812;-85
2023/05/27 05:06:55;;;;;;;;;11.33;8.33;;;;;17.11;47.49;101523.22;6231240;22;46787;-85
2023/05/27 05:09:21;;;;;;;;;6.00;6.00;;;;;17.21;47.53;101529.50;6258774;22;45277;-85
2023/05/27 05:11:46;;;;;;;;;8.33;7.67;;;;;17.27;46.99;101523.19;6232288;22;44732;-85
2023/05/27 05:14:12;;;;;;;;;6.00;6.00;;;;;17.35;47.14;101525.00;6231727;22;45375;-85
2023/05/27 05:16:37;;;;;;;;;12.33;8.00;;;;;17.40;46.82;101525.00;6258759;22;45432;-85
2023/05/27 05:19:02;;;;;;;;;9.33;9.33;;;;;17.48;46.93;101527.66;6258828;22;45345;-86
2023/05/27 05:21:28;;;;;;;;;11.67;10.67;;;;;17.53;47.20;101536.59;6230042;22;45430;-85
2023/05/27 05:23:56;;;;;;;;;10.33;8.00;;;;;17.51;47.61;101533.03;6229419;22;45370;-85
2023/05/27 05:26:22;;;;;;;;;10.00;10.00;;;;;17.61;47.44;101532.09;6229413;22;46998;-85
2023/05/27 05:28:47;;;;;;;;;8.33;6.67;;;;;17.70;47.09;101526.72;6229658;22;45332;-84
2023/05/27 05:31:12;;;;;;;;;12.67;12.67;;;;;17.76;48.05;101517.75;6260078;22;45331;-85
2023/05/27 05:33:38;;;;;;;;;9.33;8.00;;;;;17.99;47.62;101531.13;6258476;22;45552;-84
2023/05/27 05:36:07;;;;;;;;;9.00;9.00;;;;;18.14;47.85;101522.13;6230170;22;46919;-84
2023/05/27 05:41:55;;;;;;;;;14.00;12.33;;;;;18.22;47.41;101535.50;6256264;22;45422;-85
2023/05/27 05:44:22;;;;;;;;;10.00;7.00;;;;;18.32;47.81;101537.25;6232190;22;45344;-85
2023/05/27 05:46:48;;;;;;;;;18.33;15.00;;;;;18.42;47.23;101536.34;6233123;22;47177;-85
2023/05/27 05:49:13;;;;;;;;;21.67;21.00;;;;;18.57;46.96;101524.56;6231202;22;45339;-84
2023/05/27 05:51:39;;;;;;;;;22.67;21.00;;;;;18.76;46.54;101525.31;6231628;22;45308;-84
2023/05/27 05:54:05;;;;;;;;;20.00;20.00;;;;;18.88;46.84;101529.75;6229877;22;45466;-85
2023/05/27 05:56:33;;;;;;;;;16.67;15.00;;;;;19.00;46.19;101524.25;6259581;22;45254;-84
2023/05/27 05:58:58;;;;;;;;;13.33;13.33;;;;;19.02;45.79;101535.03;6229719;22;45485;-85
2023/05/27 06:01:26;;;;;;;;;12.67;12.67;;;;;19.10;45.44;101535.88;6230294;22;45781;-84
2023/05/27 06:03:56;;;;;;;;;9.67;9.33;;;;;19.14;45.21;101534.94;6260060;22;45175;-84
2023/05/27 06:06:22;;;;;;;;;11.00;8.00;;;;;19.13;45.26;101538.56;6229479;22;47075;-84
2023/05/27 06:08:47;;;;;;;;;8.00;8.00;;;;;19.22;44.91;101532.19;6229768;22;45391;-84
2023/05/27 06:14:41;;;;;;;;;11.33;9.67;;;;;19.42;44.13;101526.59;6253439;22;45472;-84
2023/05/27 06:17:07;;;;;;;;;8.00;8.00;;;;;19.27;43.89;101528.53;6255502;22;46249;-84
2023/05/27 06:19:32;;;;;;;;;10.00;10.00;;;;;19.27;44.25;101527.63;6250449;22;45311;-85
2023/05/27 06:21:57;;;;;;;;;6.67;6.67;;;;;19.29;44.43;101515.00;6250834;22;45330;-85
2023/05/27 06:24:23;;;;;;;;;7.00;7.00;;;;;19.36;44.12;101522.16;6230580;22;45266;-85
2023/05/27 06:26:49;;;;;;;;;7.67;7.67;;;;;19.34;44.42;101527.56;6254923;22;45879;-85
2023/05/27 06:29:15;;;;;;;;;8.00;6.67;;;;;19.33;44.61;101528.47;6256372;22;45322;-84
2023/05/27 06:31:41;;;;;;;;;7.33;7.00;;;;;19.35;44.16;101520.34;6257135;22;45402;-84
2023/05/27 06:34:16;;;;;;;;;8.00;7.00;;;;;19.50;43.59;101519.31;6258414;22;45428;-85
2023/05/27 06:36:41;;;;;;;;;8.00;8.00;;;;;19.30;43.96;101517.69;6228437;22;48022;-85
2023/05/27 06:39:07;;;;;;;;;8.00;8.00;;;;;19.19;44.15;101520.50;6230105;22;45414;-85
2023/05/27 06:41:32;;;;;;;;;11.50;6.50;;;;;19.17;44.20;101529.53;6230250;22;44785;-85
2023/05/27 06:43:57;;;;;;;;;7.67;6.00;;;;;19.10;45.01;101520.59;6229990;22;45458;-85
2023/05/27 06:46:23;;;;;;;;;8.00;7.00;;;;;19.05;44.15;101516.16;6228783;22;46858;-85
2023/05/27 06:48:48;;;;;;;;;10.00;9.00;;;;;19.15;44.45;101525.97;6257639;22;45410;-85
2023/05/27 06:57:58;;;;;;;;;8.00;7.00;;;;;19.32;44.59;101512.31;6262310;22;45287;-84
2023/05/27 07:00:24;;;;;;;;;7.67;7.67;;;;;19.43;44.54;101502.31;6231584;22;45186;-84
2023/05/27 07:02:49;;;;;;;;;9.33;8.00;;;;;19.52;44.43;101509.41;6256351;22;45361;-84
2023/05/27 07:05:16;;;;;;;;;5.67;4.00;;;;;19.82;44.81;101526.22;6256912;22;45857;-84
2023/05/27 07:07:43;;;;;;;;;9.67;8.67;;;;;19.95;43.91;101512.50;6231397;22;46954;-85
2023/05/27 07:10:08;;;;;;;;;8.00;7.00;;;;;20.04;43.74;101503.44;6259024;22;45422;-84
2023/05/27 07:12:34;;;;;;;;;8.00;8.00;;;;;20.06;43.62;101519.63;6258050;22;44760;-83
2023/05/27 07:14:59;;;;;;;;;7.33;7.00;;;;;19.96;43.64;101508.03;6229402;22;45468;-83
2023/05/27 07:17:25;;;;;;;;;11.33;8.00;;;;;19.95;43.84;101506.22;6231170;22;47238;-84
2023/05/27 07:19:50;;;;;;;;;9.00;7.00;;;;;19.98;43.91;101511.59;6257525;22;45391;-83
2023/05/27 07:22:16;;;;;;;;;5.33;3.00;;;;;19.98;43.86;101508.91;6257338;22;45132;-86
2023/05/27 07:24:41;;;;;;;;;9.00;7.00;;;;;19.94;44.09;101504.47;6229397;22;45117;-85
2023/05/27 07:27:07;;;;;;;;;9.00;6.67;;;;;19.88;44.15;101488.34;6228332;22;47968;-85
2023/05/27 07:29:35;;;;;;;;;9.67;7.00;;;;;20.02;44.10;101489.06;6228344;22;45387;-85
2023/05/27 07:32:01;;;;;;;;;12.67;7.00;;;;;19.96;44.25;101486.44;6229090;22;45359;-85
2023/05/27 07:34:26;;;;;;;;;5.67;5.67;;;;;20.00;44.19;101490.88;6231812;22;45311;-85
2023/05/27 07:40:17;;;;;;;;;12.33;8.00;;;;;20.02;44.34;101485.44;6259646;22;44645;-86
2023/05/27 07:42:43;;;;;;;;;8.67;8.00;;;;;20.04;44.36;101489.03;6230110;22;45332;-88
2023/05/27 07:45:11;;;;;;;;;6.33;5.00;;;;;20.15;44.64;101485.25;6228254;22;45308;-85
2023/05/27 07:47:36;;;;;;;;;8.67;8.00;;;;;20.12;44.25;101487.13;6228689;22;48105;-85
2023/05/27 07:50:03;;;;;;;;;10.00;10.00;;;;;20.05;44.58;101480.91;6256970;22;45322;-85
2023/05/27 07:52:28;;;;;;;;;11.00;9.00;;;;;19.95;44.85;101468.44;6256099;22;44667;-85
2023/05/27 07:54:53;;;;;;;;;8.67;8.33;;;;;20.02;44.61;101480.94;6229467;22;44765;-85
2023/05/27 07:57:19;;;;;;;;;7.00;7.00;;;;;20.09;44.52;101481.75;6231176;22;47370;-87
2023/05/27 07:59:44;;;;;;;;;12.00;9.00;;;;;20.02;45.06;101464.75;6255160;22;45373;-86
2023/05/27 08:02:10;;;;;;;;;1.33;1.33;;;;;20.05;44.79;101477.31;6257105;22;45733;-86
2023/05/27 08:04:35;;;;;;;;;8.00;7.00;;;;;20.20;44.69;101487.91;6256842;22;45334;-86
2023/05/27 08:07:01;;;;;;;;;10.00;9.67;;;;;20.31;44.51;101469.72;6256200;22;45870;-86
2023/05/27 08:09:26;;;;;;;;;7.67;6.33;;;;;20.46;44.53;101482.13;6229900;22;45356;-85
2023/05/27 08:11:52;;;;;;;;;9.33;8.67;;;;;20.51;44.09;101474.84;6228565;22;45943;-86
2023/05/27 08:14:20;;;;;;;;;10.00;9.00;;;;;20.70;44.22;101469.16;6228403;22;45539;-86
2023/05/27 08:16:46;;;;;;;;;8.67;7.00;;;;;20.77;44.17;101466.34;6254962;22;45272;-86
2023/05/27 08:19:11;;;;;;;;;9.67;8.33;;;;;20.90;43.58;101472.44;6227107;22;45347;-86
2023/05/27 08:21:37;;;;;;;;;6.00;5.33;;;;;20.88;43.91;101481.50;6226863;22;45319;-87
2023/05/27 08:24:04;;;;;;;;;11.67;10.00;;;;;20.97;43.92;101463.31;6227281;22;45403;-87
2023/05/27 08:26:31;;;;;;;;;6.33;6.33;;;;;20.97;43.68;101452.50;6255273;22;45668;-87
2023/05/27 08:28:56;;;;;;;;;15.00;9.67;;;;;21.06;43.83;101467.66;6254118;22;45342;-86
2023/05/27 08:31:22;;;;;;;;;4.33;4.00;;;;;21.05;43.78;101460.47;6254509;22;45370;-86
2023/05/27 08:33:51;;;;;;;;;8.67;6.67;;;;;21.02;44.10;101465.03;6227597;22;45394;-86
2023/05/27 08:36:19;;;;;;;;;12.00;10.33;;;;;21.02;43.84;101459.63;6228130;22;47707;-86
2023/05/27 08:38:44;;;;;;;;;13.33;8.33;;;;;21.03;43.78;101445.19;6255760;22;45334;-86
2023/05/27 08:41:14;;;;;;;;;11.33;11.33;;;;;21.12;43.73;101440.47;6229240;22;45351;-86
2023/05/27 08:43:41;;;;;;;;;9.33;9.33;;;;;21.16;43.83;101435.91;6257231;22;45352;-85
2023/05/27 08:46:07;;;;;;;;;11.33;8.67;;;;;21.21;43.78;101428.63;6258341;22;46683;-85
2023/05/27 08:48:34;;;;;;;;;14.67;7.33;;;;;21.16;43.87;101430.50;6231474;22;44945;-85
2023/05/27 08:51:01;;;;;;;;;6.67;6.67;;;;;21.22;44.24;101421.38;6231645;22;45308;-84
2023/05/27 08:53:28;;;;;;;;;9.33;8.00;;;;;21.28;44.05;101427.56;6231673;22;45354;-85
2023/05/27 08:55:56;;;;;;;;;11.33;8.00;;;;;21.30;43.85;101436.53;6258621;22;45298;-86
2023/05/27 08:58:22;;;;;;;;;7.67;7.00;;;;;21.27;43.97;101433.00;6231336;22;45385;-85
2023/05/27 09:00:48;;;;;;;;;9.67;9.67;;;;;21.26;43.93;101417.69;6256554;22;45259;-85
2023/05/27 09:03:13;;;;;;;;;10.33;10.00;;;;;21.27;43.82;101423.09;6257564;22;45328;-85
2023/05/27 09:05:39;;;;;;;;;7.00;7.00;;;;;21.30;44.49;101423.00;6229684;22;48162;-84
2023/05/27 09:08:07;;;;;;;;;10.67;8.00;;;;;21.33;44.25;101405.81;6229979;22;45271;-85
2023/05/27 09:10:39;;;;;;;;;8.00;8.00;;;;;21.57;44.49;101415.28;6257805;22;45265;-86
2023/05/27 09:13:12;;;;;;;;;6.67;6.67;;;;;21.64;43.86;101418.78;6232987;22;45659;-85
2023/05/27 09:15:37;;;;;;;;;7.33;7.33;;;;;21.63;43.94;101414.28;6258026;22;46670;-86
2023/05/27 09:18:04;;;;;;;;;9.33;9.33;;;;;21.61;44.18;101426.94;6231821;22;45302;-85
2023/05/27 09:20:30;;;;;;;;;9.67;8.00;;;;;21.71;44.37;101429.47;6230240;22;45709;-85
2023/05/27 09:22:57;;;;;;;;;5.00;4.33;;;;;21.85;43.78;101412.00;6234539;22;45398;-85
2023/05/27 09:25:27;;;;;;;;;8.00;7.33;;;;;21.95;44.14;101402.75;6259738;22;45626;-85
2023/05/27 09:27:52;;;;;;;;;2.67;2.67;;;;;21.84;44.10;101397.56;6260558;22;45262;-85
2023/05/27 09:30:22;;;;;;;;;11.00;10.00;;;;;22.01;44.54;101409.84;6259578;22;45405;-85
2023/05/27 09:32:49;;;;;;;;;7.67;7.67;;;;;22.05;44.10;101396.19;6256814;22;44673;-86
2023/05/27 09:35:16;;;;;;;;;8.67;8.67;;;;;22.14;43.55;101390.56;6259700;22;45303;-86
2023/05/27 09:37:43;;;;;;;;;7.00;7.00;;;;;22.12;43.46;101391.53;6234063;22;45359;-86
2023/05/27 09:40:12;;;;;;;;;11.00;8.67;;;;;22.11;43.22;101389.75;6259750;22;45013;-86
2023/05/27 09:42:48;;;;;;;;;12.33;10.00;;;;;22.07;43.72;101379.91;6230662;22;45308;-85
2023/05/27 09:45:19;;;;;;;;;11.67;10.33;;;;;22.01;43.87;101367.38;6208947;22;47324;-86
2023/05/27 09:47:52;;;;;;;;;9.00;9.00;;;;;22.14;43.79;101363.47;6234901;22;45300;-86
2023/05/27 09:50:22;;;;;;;;;12.67;7.67;;;;;22.13;43.88;101360.78;6209002;22;45322;-86
2023/05/27 09:52:49;;;;;;;;;7.33;7.33;;;;;22.24;44.28;101363.28;6260599;22;45345;-86
2023/05/27 09:55:16;;;;;;;;;9.00;8.67;;;;;22.27;43.64;101374.94;6232461;22;48314;-86
2023/05/27 09:57:42;;;;;;;;;9.67;9.00;;;;;22.28;43.61;101382.16;6233176;22;45339;-86
2023/05/27 10:00:12;;;;;;;;;10.00;8.67;;;;;22.34;43.75;101364.84;6259187;22;45347;-84
2023/05/27 10:02:59;;;;;;;;;10.00;8.00;;;;;22.35;44.38;101351.25;6205081;22;45448;-85
2023/05/27 10:05:27;;;;;;;;;13.67;9.00;;;;;22.43;44.09;101356.47;6230793;22;46970;-84
2023/05/27 10:07:55;;;;;;;;;10.00;8.33;;;;;22.41;43.70;101350.19;6259505;22;45308;-85
2023/05/27 10:10:24;;;;;;;;;9.00;9.00;;;;;22.50;44.16;101355.41;6233892;22;44709;-86
2023/05/27 10:12:53;;;;;;;;;8.67;8.67;;;;;22.56;43.66;101349.81;6230626;22;45456;-86
2023/05/27 10:15:31;;;;;;;;;11.00;10.00;;;;;22.70;43.33;101348.53;6230632;22;47066;-86
2023/05/27 10:18:02;;;;;;;;;9.67;7.67;;;;;22.64;43.59;101348.72;6230267;22;45336;-86
2023/05/27 10:20:38;;;;;;;;;11.67;9.67;;;;;22.69;43.27;101338.66;6257320;22;45367;-86
2023/05/27 10:23:17;;;;;;;;;9.33;9.33;;;;;22.76;43.65;101333.03;6234197;22;45491;-86
2023/05/27 10:25:55;;;;;;;;;8.33;7.33;;;;;22.80;43.02;101343.78;6233667;22;48226;-86
2023/05/27 10:28:28;;;;;;;;;11.67;10.00;;;;;22.84;43.40;101334.63;6258672;22;45333;-86
2023/05/27 10:31:04;;;;;;;;;9.00;8.00;;;;;22.90;43.38;101338.03;6229610;22;45466;-86
2023/05/27 10:33:30;;;;;;;;;12.00;8.00;;;;;22.89;43.70;101330.84;6230622;22;44834;-86
2023/05/27 10:36:15;;;;;;;;;10.33;10.33;;;;;23.10;43.64;101340.22;6257214;22;46320;-86
2023/05/27 10:38:56;;;;;;;;;12.00;11.67;;;;;23.11;43.19;101342.03;6257046;22;45440;-86
2023/05/27 10:41:22;;;;;;;;;9.67;9.67;;;;;22.99;43.09;101330.59;6231003;22;45331;-86
2023/05/27 10:43:57;;;;;;;;;8.33;7.67;;;;;23.10;43.44;101334.81;6256347;22;44744;-86
2023/05/27 10:46:22;;;;;;;;;8.00;8.00;;;;;23.06;43.43;101315.94;6255010;22;45847;-85
2023/05/27 10:48:48;;;;;;;;;13.67;13.67;;;;;23.15;43.05;101331.97;6228528;22;45658;-85
2023/05/27 10:51:13;;;;;;;;;11.67;10.00;;;;;23.18;42.88;101315.59;6256774;22;45476;-85
2023/05/27 10:53:39;;;;;;;;;10.33;8.33;;;;;23.26;43.21;101312.66;6258008;22;45376;-85
2023/05/27 10:56:05;;;;;;;;;10.33;8.33;;;;;23.38;42.80;101316.84;6229877;22;47519;-85
2023/05/27 10:58:35;;;;;;;;;11.00;8.00;;;;;23.52;42.93;101314.59;6259452;22;44740;-84
2023/05/27 11:01:11;;;;;;;;;13.00;10.33;;;;;23.59;43.21;101302.59;6231392;22;45477;-85
2023/05/27 11:03:45;;;;;;;;;12.33;10.00;;;;;23.60;42.70;101301.66;6234340;22;45548;-87
2023/05/27 11:06:12;;;;;;;;;9.00;9.00;;;;;23.48;41.80;101293.91;6262012;22;46385;-86
2023/05/27 11:08:38;;;;;;;;;10.67;9.67;;;;;23.50;42.46;101292.91;6209712;22;45261;-86
2023/05/27 11:11:12;;;;;;;;;9.00;9.00;;;;;23.64;41.74;101292.47;6233948;22;45366;-85
2023/05/27 11:13:45;;;;;;;;;9.00;9.00;;;;;23.72;42.25;101297.69;6262552;22;45280;-85
2023/05/27 11:16:12;;;;;;;;;11.00;8.67;;;;;23.60;42.23;101285.38;6235417;22;46713;-85
2023/05/27 11:18:43;;;;;;;;;12.67;11.00;;;;;23.68;42.46;101275.16;6261115;22;45432;-85
2023/05/27 11:21:10;;;;;;;;;7.00;6.67;;;;;23.69;42.60;101285.09;6259325;22;44849;-85
2023/05/27 11:23:45;;;;;;;;;9.67;8.33;;;;;23.88;42.51;101289.97;6257797;22;45396;-85
2023/05/27 11:26:15;;;;;;;;;10.33;10.00;;;;;23.93;42.13;101293.41;6231197;22;46787;-85
2023/05/27 11:28:54;;;;;;;;;10.67;9.33;;;;;23.94;41.59;101268.03;6257355;22;45271;-85
2023/05/27 11:31:26;;;;;;;;;9.67;8.33;;;;;23.89;42.45;101287.19;6231631;22;45347;-85
2023/05/27 11:33:52;;;;;;;;;11.67;11.67;;;;;23.82;41.81;101273.88;6229964;22;45108;-86
2023/05/27 11:36:18;;;;;;;;;11.00;10.67;;;;;23.87;42.36;101277.31;6257353;22;45812;-86
2023/05/27 11:38:47;;;;;;;;;12.67;11.00;;;;;23.94;42.03;101266.19;6258822;22;45303;-86
2023/05/27 11:41:12;;;;;;;;;10.33;10.33;;;;;23.86;42.26;101265.56;6257653;22;45374;-86
2023/05/27 11:43:47;;;;;;;;;8.00;8.00;;;;;23.99;41.94;101254.28;6231452;22;45698;-86
2023/05/27 11:46:12;;;;;;;;;9.33;9.33;;;;;23.95;42.15;101254.38;6257579;22;45480;-86